Keatchie, Louisiana
Current Conditions -  °F | °C
As of 8:56 PM on Friday 19 Dec 2014 (Local Time) from KSHV Reporting Station
Drizzle Drizzle  
Wind Chill: 41°   Ceiling: 700
Heat Index: 47°   Visibility: 6mi
Dew Point: 45°   Wind: 14mph
Humidity: 93%   Direction: 70°ENE
Pressure: 30.18"   Gusts: NA
Location:  32.19°N, 93.91°W
Report Text: KSHV 200256Z 07012KT 6SM -DZ BR OVC007 08/07 A3018 RMK AO2 CIG 005V010 SLP219 P0000 60001 T00830072 51010
Loading
Personal Weather Stations






























Interactive Weather Map New forecast layout! Learn more

10-Day Weather Forecast

Advertisements
Track Severe Weather on mobile